Time;durP1;ratioP1;P1;durP2;ratioP2;P2;SDS_P1;SDS_P2;PMS_P1;PMS_P2;Temp;Humidity;BMP_temperature;BMP_pressure;BME280_temperature;BME280_humidity;BME280_pressure;Samples;Min_cycle;Max_cycle;Signal;HPM_P1;HPM_P2
2021/03/03 00:01:00;;;;;;;29.10;12.20;;;;;;;;;;5064014;28;20621;-67
2021/03/03 00:03:25;;;;;;;31.20;12.70;;;;;;;;;;5059886;28;20280;-67
2021/03/03 00:05:50;;;;;;;27.02;11.15;;;;;;;;;;5052370;28;20056;-67
2021/03/03 00:08:16;;;;;;;28.67;11.73;;;;;;;;;;5061398;28;20473;-67
2021/03/03 00:10:41;;;;;;;29.73;11.87;;;;;;;;;;5065260;28;20024;-67
2021/03/03 00:13:06;;;;;;;28.35;12.90;;;;;;;;;;5053423;28;20293;-67
2021/03/03 00:15:31;;;;;;;26.52;12.30;;;;;;;;;;5054563;28;20020;-67
2021/03/03 00:17:56;;;;;;;32.90;13.05;;;;;;;;;;5068003;28;20029;-67
2021/03/03 00:20:22;;;;;;;29.67;11.88;;;;;;;;;;5050848;28;20077;-67
2021/03/03 00:22:47;;;;;;;29.45;11.45;;;;;;;;;;5057385;28;20074;-67
2021/03/03 00:25:12;;;;;;;29.90;10.93;;;;;;;;;;5059016;28;20024;-67
2021/03/03 00:27:37;;;;;;;26.42;11.57;;;;;;;;;;5058213;28;20350;-67
2021/03/03 00:30:03;;;;;;;24.70;10.97;;;;;;;;;;5062599;28;20043;-67
2021/03/03 00:32:28;;;;;;;30.20;13.15;;;;;;;;;;5054598;28;20283;-67
2021/03/03 00:34:53;;;;;;;25.92;12.38;;;;;;;;;;5062395;28;20059;-67
2021/03/03 00:37:18;;;;;;;29.67;12.73;;;;;;;;;;5043305;28;20017;-67
2021/03/03 00:39:43;;;;;;;27.30;11.80;;;;;;;;;;5060551;28;20009;-67
2021/03/03 00:42:09;;;;;;;25.17;12.63;;;;;;;;;;5048506;28;20024;-67
2021/03/03 00:44:34;;;;;;;27.65;11.85;;;;;;;;;;5060770;28;20270;-67
2021/03/03 00:46:59;;;;;;;25.77;10.93;;;;;;;;;;5051080;28;20435;-67
2021/03/03 00:49:24;;;;;;;28.02;11.82;;;;;;;;;;5050551;28;20028;-67
2021/03/03 00:51:49;;;;;;;30.85;11.32;;;;;;;;;;5062192;28;20104;-67
2021/03/03 00:54:14;;;;;;;26.70;11.63;;;;;;;;;;5053178;28;20041;-67
2021/03/03 00:56:40;;;;;;;27.08;12.13;;;;;;;;;;5059357;28;20036;-67
2021/03/03 00:59:05;;;;;;;26.35;10.70;;;;;;;;;;5053610;28;20099;-67
2021/03/03 01:01:30;;;;;;;29.25;12.20;;;;;;;;;;5045792;28;20095;-67
2021/03/03 01:03:55;;;;;;;22.98;10.35;;;;;;;;;;5055348;28;20505;-67
2021/03/03 01:06:21;;;;;;;27.50;12.57;;;;;;;;;;5066550;28;20029;-67
2021/03/03 01:08:46;;;;;;;26.58;11.48;;;;;;;;;;5053035;28;20033;-67
2021/03/03 01:11:11;;;;;;;28.73;10.80;;;;;;;;;;5050006;28;20041;-67
2021/03/03 01:13:36;;;;;;;22.17;10.75;;;;;;;;;;5047477;28;20029;-67
2021/03/03 01:16:02;;;;;;;27.02;12.88;;;;;;;;;;5049982;28;20103;-67
2021/03/03 01:18:27;;;;;;;20.30;9.90;;;;;;;;;;5050034;28;20016;-67
2021/03/03 01:20:52;;;;;;;23.20;11.02;;;;;;;;;;5059350;28;20507;-67
2021/03/03 01:23:17;;;;;;;30.98;10.65;;;;;;;;;;5068725;28;20032;-67
2021/03/03 01:25:42;;;;;;;23.37;10.80;;;;;;;;;;5057792;28;20029;-67
2021/03/03 01:28:09;;;;;;;33.33;11.75;;;;;;;;;;5053434;28;20770;-67
2021/03/03 01:30:35;;;;;;;24.80;11.30;;;;;;;;;;5048939;28;20021;-67
2021/03/03 01:33:00;;;;;;;25.35;11.23;;;;;;;;;;5058072;28;20028;-67
2021/03/03 01:35:25;;;;;;;27.60;12.43;;;;;;;;;;5063636;28;20435;-67
2021/03/03 01:37:50;;;;;;;26.25;12.23;;;;;;;;;;5052028;28;20302;-67
2021/03/03 01:40:16;;;;;;;25.73;10.80;;;;;;;;;;5049665;28;20021;-67
2021/03/03 01:42:41;;;;;;;29.17;11.93;;;;;;;;;;5050249;28;20619;-67
2021/03/03 01:45:06;;;;;;;36.15;12.40;;;;;;;;;;5055046;28;20028;-67
2021/03/03 01:47:32;;;;;;;23.85;11.05;;;;;;;;;;5054600;28;20466;-67
2021/03/03 01:49:57;;;;;;;33.63;11.65;;;;;;;;;;5053434;28;20028;-67
2021/03/03 01:52:23;;;;;;;36.70;12.73;;;;;;;;;;5062307;28;20025;-67
2021/03/03 01:54:48;;;;;;;26.25;10.93;;;;;;;;;;5061381;28;20316;-67
2021/03/03 01:57:13;;;;;;;25.50;12.15;;;;;;;;;;5054363;28;20017;-67
2021/03/03 01:59:39;;;;;;;25.95;10.70;;;;;;;;;;5055282;28;20389;-67
2021/03/03 02:02:04;;;;;;;29.80;11.75;;;;;;;;;;5067470;28;20021;-67
2021/03/03 02:04:29;;;;;;;33.63;11.57;;;;;;;;;;5069405;28;20035;-67
2021/03/03 02:07:13;;;;;;;26.35;12.05;;;;;;;;;;5073075;28;20024;-67
2021/03/03 02:09:44;;;;;;;24.48;11.38;;;;;;;;;;5048026;28;20024;-67
2021/03/03 02:12:11;;;;;;;23.90;10.20;;;;;;;;;;5039826;28;20489;-67
2021/03/03 02:14:37;;;;;;;29.33;11.48;;;;;;;;;;5053272;28;20476;-67
2021/03/03 02:17:03;;;;;;;24.15;11.00;;;;;;;;;;5068076;28;20067;-67
2021/03/03 02:19:29;;;;;;;28.33;11.18;;;;;;;;;;5059490;28;20016;-67
2021/03/03 02:22:00;;;;;;;22.45;10.57;;;;;;;;;;5054312;28;20017;-67
2021/03/03 02:24:28;;;;;;;22.55;10.48;;;;;;;;;;5052511;28;20021;-67
2021/03/03 02:26:56;;;;;;;33.85;12.38;;;;;;;;;;5052965;28;20025;-67
2021/03/03 02:29:24;;;;;;;22.75;11.88;;;;;;;;;;5055840;28;20027;-67
2021/03/03 02:31:49;;;;;;;25.13;11.45;;;;;;;;;;5055101;28;20031;-67
2021/03/03 02:34:15;;;;;;;28.10;11.73;;;;;;;;;;5098898;22;20040;-67
2021/03/03 02:36:41;;;;;;;24.55;11.32;;;;;;;;;;5092378;28;20060;-68
2021/03/03 02:39:06;;;;;;;27.33;10.48;;;;;;;;;;5092192;28;20418;-67
2021/03/03 02:41:33;;;;;;;22.90;10.35;;;;;;;;;;5090949;28;20016;-67
2021/03/03 02:43:59;;;;;;;26.63;11.20;;;;;;;;;;5086880;28;20027;-67
2021/03/03 02:46:24;;;;;;;21.10;9.82;;;;;;;;;;5073233;28;20029;-67
2021/03/03 02:48:50;;;;;;;25.90;11.10;;;;;;;;;;5072617;28;20032;-67
2021/03/03 02:51:15;;;;;;;23.85;10.35;;;;;;;;;;5087718;28;20020;-67
2021/03/03 02:53:40;;;;;;;24.80;11.50;;;;;;;;;;5088119;28;20020;-67
2021/03/03 02:56:06;;;;;;;24.65;11.40;;;;;;;;;;5072302;28;20016;-67
2021/03/03 02:58:31;;;;;;;23.98;10.45;;;;;;;;;;5076531;28;20104;-67
2021/03/03 03:01:00;;;;;;;29.00;10.93;;;;;;;;;;5081665;28;20016;-67
2021/03/03 03:03:31;;;;;;;26.90;11.20;;;;;;;;;;5076167;28;20051;-67
2021/03/03 03:06:15;;;;;;;31.45;11.35;;;;;;;;;;5070806;28;20077;-67
2021/03/03 03:08:41;;;;;;;26.27;11.32;;;;;;;;;;5085776;28;20107;-67
2021/03/03 03:11:07;;;;;;;28.40;12.00;;;;;;;;;;5086621;28;20016;-67
2021/03/03 03:13:34;;;;;;;23.30;10.60;;;;;;;;;;5085586;28;20275;-67
2021/03/03 03:15:59;;;;;;;25.88;11.60;;;;;;;;;;5073131;28;20027;-67
2021/03/03 03:18:28;;;;;;;27.02;10.73;;;;;;;;;;5087146;28;20111;-67
2021/03/03 03:20:54;;;;;;;32.30;11.55;;;;;;;;;;5071820;28;20207;-67
2021/03/03 03:23:21;;;;;;;27.35;11.18;;;;;;;;;;5078776;28;20031;-67
2021/03/03 03:25:46;;;;;;;25.58;11.70;;;;;;;;;;5071408;28;20023;-67
2021/03/03 03:28:12;;;;;;;28.35;10.85;;;;;;;;;;5073600;28;20024;-67
2021/03/03 03:30:37;;;;;;;25.02;11.05;;;;;;;;;;5071614;28;20039;-67
2021/03/03 03:33:03;;;;;;;36.60;13.98;;;;;;;;;;5086531;28;20035;-67
2021/03/03 03:35:29;;;;;;;29.02;11.60;;;;;;;;;;5072184;28;20020;-67
2021/03/03 03:37:55;;;;;;;33.75;11.23;;;;;;;;;;5074824;28;20050;-67
2021/03/03 03:40:20;;;;;;;30.13;12.25;;;;;;;;;;5083179;28;20042;-67
2021/03/03 03:42:46;;;;;;;27.08;11.15;;;;;;;;;;5091151;28;20028;-67
2021/03/03 03:45:12;;;;;;;24.13;11.80;;;;;;;;;;5074595;28;20024;-67
2021/03/03 03:47:39;;;;;;;25.77;11.95;;;;;;;;;;5073501;28;20046;-67
2021/03/03 03:50:05;;;;;;;33.13;12.27;;;;;;;;;;5081914;28;20020;-67
2021/03/03 03:52:31;;;;;;;28.70;11.27;;;;;;;;;;5073218;28;20035;-67
2021/03/03 03:54:56;;;;;;;33.30;12.90;;;;;;;;;;5074874;28;20020;-67
2021/03/03 03:57:21;;;;;;;27.45;11.48;;;;;;;;;;5071946;28;20089;-67
2021/03/03 03:59:47;;;;;;;32.88;13.13;;;;;;;;;;5083532;28;20095;-67
2021/03/03 04:02:12;;;;;;;28.15;12.00;;;;;;;;;;5085614;28;20415;-67
2021/03/03 04:04:38;;;;;;;33.53;12.02;;;;;;;;;;5077426;28;20431;-67
2021/03/03 04:07:03;;;;;;;29.35;12.68;;;;;;;;;;5072650;28;20035;-67
2021/03/03 04:09:29;;;;;;;33.70;12.52;;;;;;;;;;5082633;28;20043;-67
2021/03/03 04:11:54;;;;;;;31.45;12.20;;;;;;;;;;5088593;28;20027;-67
2021/03/03 04:14:19;;;;;;;32.08;12.02;;;;;;;;;;5073426;28;20499;-67
2021/03/03 04:16:45;;;;;;;30.13;13.48;;;;;;;;;;5070855;28;20476;-67
2021/03/03 04:19:10;;;;;;;31.92;13.38;;;;;;;;;;5077207;28;20017;-67
2021/03/03 04:21:35;;;;;;;38.08;13.80;;;;;;;;;;5090440;28;20016;-67
2021/03/03 04:24:00;;;;;;;32.90;12.98;;;;;;;;;;5086790;28;20032;-67
2021/03/03 04:26:25;;;;;;;34.50;13.13;;;;;;;;;;5088192;28;20019;-67
2021/03/03 04:28:50;;;;;;;43.50;13.57;;;;;;;;;;5085091;28;20086;-67
2021/03/03 04:31:16;;;;;;;29.63;12.15;;;;;;;;;;5074263;28;20452;-67
2021/03/03 04:33:41;;;;;;;26.30;11.68;;;;;;;;;;5079154;28;20032;-67
2021/03/03 04:36:06;;;;;;;33.10;11.30;;;;;;;;;;5071475;28;20016;-67
2021/03/03 04:38:31;;;;;;;37.55;12.40;;;;;;;;;;5083215;28;20372;-67
2021/03/03 04:40:57;;;;;;;31.48;12.13;;;;;;;;;;5085867;28;20025;-67
2021/03/03 04:43:22;;;;;;;28.45;11.73;;;;;;;;;;5088922;28;20063;-67
2021/03/03 04:45:47;;;;;;;29.95;12.73;;;;;;;;;;5076765;28;20044;-67
2021/03/03 04:48:12;;;;;;;30.40;12.88;;;;;;;;;;5076387;28;20027;-67
2021/03/03 04:50:38;;;;;;;32.47;12.93;;;;;;;;;;5070118;28;20435;-67
2021/03/03 04:53:03;;;;;;;32.17;13.20;;;;;;;;;;5074550;28;20063;-67
2021/03/03 04:55:28;;;;;;;28.85;11.60;;;;;;;;;;5089505;28;20025;-67
2021/03/03 04:57:53;;;;;;;34.83;13.18;;;;;;;;;;5079742;28;20063;-67
2021/03/03 05:00:19;;;;;;;31.98;13.48;;;;;;;;;;5084931;28;20016;-67
2021/03/03 05:02:44;;;;;;;36.13;12.52;;;;;;;;;;5081479;28;20025;-67
2021/03/03 05:05:09;;;;;;;31.48;13.57;;;;;;;;;;5089653;28;20051;-67
2021/03/03 05:07:34;;;;;;;26.25;13.43;;;;;;;;;;5085418;28;20097;-67
2021/03/03 05:10:00;;;;;;;30.33;12.95;;;;;;;;;;5089755;28;20376;-67
2021/03/03 05:12:27;;;;;;;29.90;12.43;;;;;;;;;;5079542;28;20461;-67
2021/03/03 05:14:52;;;;;;;31.63;12.35;;;;;;;;;;5077713;28;20109;-67
2021/03/03 05:17:17;;;;;;;36.03;12.30;;;;;;;;;;5078209;28;20050;-67
2021/03/03 05:19:42;;;;;;;33.75;13.00;;;;;;;;;;5079236;28;20037;-67
2021/03/03 05:22:08;;;;;;;31.77;13.43;;;;;;;;;;5075925;28;20020;-67
2021/03/03 05:24:33;;;;;;;32.03;13.65;;;;;;;;;;5081275;28;20758;-67
2021/03/03 05:26:58;;;;;;;31.42;13.18;;;;;;;;;;5073814;28;20032;-67
2021/03/03 05:29:23;;;;;;;30.50;12.80;;;;;;;;;;5088506;28;20068;-67
2021/03/03 05:31:48;;;;;;;35.97;13.63;;;;;;;;;;5082045;28;20012;-67
2021/03/03 05:34:13;;;;;;;33.35;12.88;;;;;;;;;;5077986;28;20028;-67
2021/03/03 05:36:39;;;;;;;32.00;13.57;;;;;;;;;;5082010;28;20027;-67
2021/03/03 05:39:04;;;;;;;39.38;13.90;;;;;;;;;;5089263;28;20491;-67
2021/03/03 05:41:29;;;;;;;40.20;12.77;;;;;;;;;;5092945;28;20024;-67
2021/03/03 05:43:56;;;;;;;31.75;11.77;;;;;;;;;;5089749;28;20077;-67
2021/03/03 05:46:21;;;;;;;41.00;14.63;;;;;;;;;;5077694;28;20053;-67
2021/03/03 05:48:50;;;;;;;34.05;12.80;;;;;;;;;;5081069;28;20107;-67
2021/03/03 05:51:16;;;;;;;32.72;14.10;;;;;;;;;;5086061;28;20046;-67
2021/03/03 05:53:41;;;;;;;45.53;15.07;;;;;;;;;;5074570;28;20025;-67
2021/03/03 05:56:08;;;;;;;31.20;12.93;;;;;;;;;;5087156;28;20024;-67
2021/03/03 05:58:38;;;;;;;33.17;13.40;;;;;;;;;;5075540;28;20421;-67
2021/03/03 06:01:07;;;;;;;37.08;13.65;;;;;;;;;;5088877;28;20016;-67
2021/03/03 06:03:33;;;;;;;35.00;12.35;;;;;;;;;;5084413;28;20051;-67
2021/03/03 06:05:58;;;;;;;30.80;13.70;;;;;;;;;;5085070;28;20468;-67
2021/03/03 06:08:27;;;;;;;33.78;12.50;;;;;;;;;;5089755;28;20028;-67
2021/03/03 06:10:52;;;;;;;33.83;13.43;;;;;;;;;;5091466;28;20020;-67
2021/03/03 06:13:18;;;;;;;28.02;12.10;;;;;;;;;;5089405;28;20380;-67
2021/03/03 06:15:43;;;;;;;33.60;14.98;;;;;;;;;;5080287;28;20042;-67
2021/03/03 06:18:10;;;;;;;33.70;13.82;;;;;;;;;;5074528;28;20020;-67
2021/03/03 06:20:39;;;;;;;35.13;13.90;;;;;;;;;;5072430;28;20476;-67
2021/03/03 06:23:16;;;;;;;39.67;14.50;;;;;;;;;;5070409;28;20035;-67
2021/03/03 06:25:42;;;;;;;37.33;15.70;;;;;;;;;;5080457;28;20059;-66
2021/03/03 06:28:09;;;;;;;36.83;15.25;;;;;;;;;;5076442;28;20075;-66
2021/03/03 06:30:34;;;;;;;37.72;13.63;;;;;;;;;;5069841;28;20128;-66
2021/03/03 06:33:01;;;;;;;30.50;13.38;;;;;;;;;;5073101;28;20111;-67
2021/03/03 06:35:37;;;;;;;31.92;13.50;;;;;;;;;;5085545;28;20024;-66
2021/03/03 06:38:03;;;;;;;41.30;14.82;;;;;;;;;;5084625;28;20021;-66
2021/03/03 06:40:28;;;;;;;36.88;14.55;;;;;;;;;;5086635;28;20028;-67
2021/03/03 06:42:53;;;;;;;35.63;13.93;;;;;;;;;;5079778;28;20032;-67
2021/03/03 06:45:25;;;;;;;38.55;13.45;;;;;;;;;;5082023;28;20043;-67
2021/03/03 06:47:51;;;;;;;31.95;14.02;;;;;;;;;;5074190;28;20547;-67
2021/03/03 06:50:16;;;;;;;39.30;15.55;;;;;;;;;;5071943;28;20103;-67
2021/03/03 06:52:42;;;;;;;35.22;14.90;;;;;;;;;;5074689;28;20039;-67
2021/03/03 06:55:08;;;;;;;39.92;13.93;;;;;;;;;;5082359;28;20110;-67
2021/03/03 06:57:33;;;;;;;40.85;15.27;;;;;;;;;;5080663;28;20473;-67
2021/03/03 06:59:58;;;;;;;41.30;14.37;;;;;;;;;;5073484;28;20032;-67
2021/03/03 07:02:29;;;;;;;40.05;15.05;;;;;;;;;;5084657;28;20351;-67
2021/03/03 07:04:54;;;;;;;;;;;;;;;;;;5072229;28;20025;-67
2021/03/03 07:07:19;;;;;;;42.15;14.93;;;;;;;;;;5073645;28;19915;-67
2021/03/03 07:09:44;;;;;;;42.83;15.30;;;;;;;;;;5090173;28;20024;-67
2021/03/03 07:12:11;;;;;;;33.78;14.73;;;;;;;;;;5079911;28;20024;-67
2021/03/03 07:14:37;;;;;;;32.42;14.20;;;;;;;;;;5079305;28;20055;-67
2021/03/03 07:17:06;;;;;;;37.03;14.82;;;;;;;;;;5073613;28;20020;-67
2021/03/03 07:19:31;;;;;;;38.83;13.52;;;;;;;;;;5073098;28;20098;-67
2021/03/03 07:21:57;;;;;;;43.30;14.68;;;;;;;;;;5074095;28;20035;-67
2021/03/03 07:24:23;;;;;;;37.97;14.02;;;;;;;;;;5077058;28;20063;-67
2021/03/03 07:26:49;;;;;;;32.10;15.10;;;;;;;;;;5086628;28;20028;-67
2021/03/03 07:29:14;;;;;;;34.33;15.13;;;;;;;;;;5084987;28;20012;-67
2021/03/03 07:31:40;;;;;;;35.30;15.55;;;;;;;;;;5081060;28;20169;-67
2021/03/03 07:34:09;;;;;;;37.33;15.32;;;;;;;;;;5084415;28;20081;-67
2021/03/03 07:36:34;;;;;;;38.97;14.95;;;;;;;;;;5079531;28;20081;-67
2021/03/03 07:39:01;;;;;;;38.63;14.77;;;;;;;;;;5081199;28;20012;-67
2021/03/03 07:41:27;;;;;;;36.13;16.38;;;;;;;;;;5080655;28;20044;-67
2021/03/03 07:43:53;;;;;;;33.65;14.35;;;;;;;;;;5079101;28;20058;-67
2021/03/03 07:46:19;;;;;;;32.00;13.75;;;;;;;;;;5077161;28;20087;-67
2021/03/03 07:48:47;;;;;;;34.35;14.13;;;;;;;;;;5077205;28;20036;-67
2021/03/03 07:51:12;;;;;;;31.25;14.05;;;;;;;;;;5080798;28;20487;-67
2021/03/03 07:53:39;;;;;;;38.97;14.45;;;;;;;;;;5083021;28;20036;-67
2021/03/03 07:56:06;;;;;;;30.33;13.43;;;;;;;;;;5077052;28;20407;-67
2021/03/03 07:58:32;;;;;;;41.33;14.95;;;;;;;;;;5079681;28;20024;-67
2021/03/03 08:00:57;;;;;;;36.17;15.18;;;;;;;;;;5077631;28;20023;-68
2021/03/03 08:03:42;;;;;;;29.85;14.38;;;;;;;;;;5073736;28;20093;-68
2021/03/03 08:06:19;;;;;;;35.97;13.88;;;;;;;;;;5080530;28;20048;-67
2021/03/03 08:09:04;;;;;;;32.38;14.00;;;;;;;;;;5073242;28;20032;-68
2021/03/03 08:11:29;;;;;;;42.85;15.40;;;;;;;;;;5081675;28;20036;-68
2021/03/03 08:13:55;;;;;;;37.70;15.43;;;;;;;;;;5078883;28;20035;-68
2021/03/03 08:16:20;;;;;;;33.33;14.35;;;;;;;;;;5082946;28;20016;-67
2021/03/03 08:18:48;;;;;;;32.58;13.63;;;;;;;;;;5089003;28;20480;-68
2021/03/03 08:21:16;;;;;;;35.13;14.50;;;;;;;;;;5085247;28;20038;-68
2021/03/03 08:23:42;;;;;;;36.72;15.20;;;;;;;;;;5079415;28;20510;-68
2021/03/03 08:26:16;;;;;;;35.30;14.25;;;;;;;;;;5080614;28;20111;-68
2021/03/03 08:28:42;;;;;;;37.70;15.32;;;;;;;;;;5089576;28;20035;-68
2021/03/03 08:31:13;;;;;;;37.10;14.07;;;;;;;;;;5072075;28;20020;-68
2021/03/03 08:33:39;;;;;;;40.33;15.30;;;;;;;;;;5098913;22;20083;-86
2021/03/03 08:36:39;;;;;;;34.15;13.88;;;;;;;;;;5049799;28;20017;-86
2021/03/03 08:39:14;;;;;;;27.10;13.98;;;;;;;;;;5006385;28;20032;-86
2021/03/03 08:41:42;;;;;;;34.88;15.25;;;;;;;;;;5055014;28;20112;-86
2021/03/03 08:44:12;;;;;;;34.83;14.15;;;;;;;;;;5031734;28;20025;-86
2021/03/03 08:46:58;;;;;;;43.70;15.43;;;;;;;;;;5030534;28;20514;-87
2021/03/03 08:49:53;;;;;;;28.05;12.77;;;;;;;;;;5032734;28;20275;-86
2021/03/03 08:52:17;;;;;;;39.50;13.65;;;;;;;;;;5043329;28;20072;-86
2021/03/03 08:55:03;;;;;;;31.88;12.95;;;;;;;;;;5038104;28;20052;-86
2021/03/03 08:57:29;;;;;;;40.55;14.82;;;;;;;;;;5048339;28;20104;-86
2021/03/03 09:00:47;;;;;;;35.13;14.30;;;;;;;;;;5041439;28;20730;-87
2021/03/03 09:02:53;;;;;;;28.88;12.88;;;;;;;;;;5036811;28;20052;-86
2021/03/03 09:05:20;;;;;;;33.33;14.20;;;;;;;;;;5037101;28;20029;-86
2021/03/03 09:07:51;;;;;;;31.67;14.60;;;;;;;;;;5038559;28;20029;-86
2021/03/03 09:10:39;;;;;;;31.73;13.38;;;;;;;;;;5051986;28;20021;-87
2021/03/03 09:13:05;;;;;;;31.38;14.10;;;;;;;;;;5033876;28;20038;-86
2021/03/03 09:16:00;;;;;;;34.67;12.88;;;;;;;;;;5033361;28;20033;-87
2021/03/03 09:18:59;;;;;;;29.77;13.35;;;;;;;;;;5030779;28;20108;-86
2021/03/03 09:21:34;;;;;;;35.05;12.27;;;;;;;;;;5037000;28;20480;-87
2021/03/03 09:24:54;;;;;;;31.85;11.88;;;;;;;;;;5036935;28;20025;-87
2021/03/03 09:28:01;;;;;;;30.35;11.43;;;;;;;;;;5070840;28;20033;-87
2021/03/03 09:30:41;;;;;;;27.15;10.32;;;;;;;;;;5053405;28;20025;-86
2021/03/03 09:33:23;;;;;;;28.70;12.98;;;;;;;;;;5052732;28;20025;-87
2021/03/03 09:36:08;;;;;;;;;;;;;;;;;;;;;
2021/03/03 09:38:59;;;;;;;30.35;12.50;;;;;;;;;;5053650;28;20404;-86
2021/03/03 09:41:36;;;;;;;24.35;11.27;;;;;;;;;;5053512;28;20017;-86
2021/03/03 09:44:24;;;;;;;31.65;11.95;;;;;;;;;;5033896;28;20052;-87
2021/03/03 09:47:18;;;;;;;29.23;13.10;;;;;;;;;;5042328;28;20027;-86
2021/03/03 09:49:47;;;;;;;29.23;11.52;;;;;;;;;;4997822;28;20037;-86
2021/03/03 09:52:18;;;;;;;32.85;11.95;;;;;;;;;;5064042;28;20059;-86
2021/03/03 09:54:46;;;;;;;27.02;11.77;;;;;;;;;;5069390;28;20052;-86
2021/03/03 09:57:44;;;;;;;32.55;13.30;;;;;;;;;;5052749;28;20024;-86
2021/03/03 10:00:17;;;;;;;34.70;14.05;;;;;;;;;;5026814;28;20021;-87
2021/03/03 10:03:13;;;;;;;37.88;14.60;;;;;;;;;;5035115;28;20556;-87
2021/03/03 10:05:41;;;;;;;41.83;14.85;;;;;;;;;;5050864;28;20037;-87
2021/03/03 10:08:58;;;;;;;32.25;13.27;;;;;;;;;;5053846;28;20021;-86
2021/03/03 10:11:16;;;;;;;32.83;14.65;;;;;;;;;;5049266;28;20025;-86
2021/03/03 10:20:51;;;;;;;;;;;;;;;;;;;;;
2021/03/03 10:23:19;;;;;;;38.40;14.63;;;;;;;;;;5039681;28;20504;-87
2021/03/03 10:25:49;;;;;;;32.65;14.98;;;;;;;;;;5027742;28;20520;-87
2021/03/03 10:28:19;;;;;;;36.38;14.43;;;;;;;;;;5049623;28;20052;-87
2021/03/03 10:31:13;;;;;;;38.85;15.60;;;;;;;;;;5051565;28;20025;-86
2021/03/03 10:33:39;;;;;;;36.05;15.45;;;;;;;;;;5027341;28;20029;-86
2021/03/03 10:36:14;;;;;;;29.90;13.30;;;;;;;;;;5040994;28;20396;-86
2021/03/03 10:44:56;;;;;;;32.72;13.93;;;;;;;;;;5014398;28;20021;-87
2021/03/03 10:50:49;;;;;;;34.25;14.55;;;;;;;;;;5052416;28;20414;-87
2021/03/03 10:53:34;;;;;;;34.03;16.20;;;;;;;;;;5056418;28;20037;-87
2021/03/03 10:56:19;;;;;;;49.17;18.50;;;;;;;;;;4941226;28;20395;-86
2021/03/03 10:58:55;;;;;;;33.50;15.45;;;;;;;;;;5026374;28;20044;-86
2021/03/03 11:01:24;;;;;;;33.22;15.00;;;;;;;;;;5031988;28;20048;-87
2021/03/03 11:04:05;;;;;;;46.10;18.25;;;;;;;;;;5032760;28;20083;-87
2021/03/03 11:08:58;;;;;;;45.05;19.95;;;;;;;;;;5050894;28;20049;-65
2021/03/03 11:11:23;;;;;;;41.60;17.60;;;;;;;;;;5051223;28;20024;-63
2021/03/03 11:13:49;;;;;;;58.55;21.35;;;;;;;;;;5049724;28;20345;-63
2021/03/03 11:16:14;;;;;;;52.47;20.75;;;;;;;;;;5048901;28;20009;-64
2021/03/03 11:18:40;;;;;;;54.67;21.13;;;;;;;;;;5050469;28;20437;-64
2021/03/03 11:21:05;;;;;;;43.72;21.13;;;;;;;;;;5044932;28;20346;-64
2021/03/03 11:23:33;;;;;;;46.08;20.42;;;;;;;;;;5097729;22;20062;-86
2021/03/03 11:25:59;;;;;;;39.00;20.00;;;;;;;;;;5053293;28;20435;-87
2021/03/03 11:28:24;;;;;;;43.40;20.05;;;;;;;;;;5073556;28;20028;-86
2021/03/03 11:30:52;;;;;;;45.92;21.02;;;;;;;;;;5071504;28;20029;-86
2021/03/03 11:33:17;;;;;;;53.47;23.88;;;;;;;;;;5072495;28;20064;-87
2021/03/03 11:35:42;;;;;;;45.78;22.08;;;;;;;;;;5066522;28;20059;-88
2021/03/03 11:38:08;;;;;;;50.08;21.25;;;;;;;;;;5072532;28;20085;-88
2021/03/03 11:40:34;;;;;;;47.60;22.50;;;;;;;;;;5074419;28;20027;-88
2021/03/03 11:42:59;;;;;;;48.75;22.92;;;;;;;;;;5072575;28;20047;-87
2021/03/03 11:45:27;;;;;;;43.47;22.52;;;;;;;;;;5071010;28;20017;-87
2021/03/03 11:47:52;;;;;;;48.75;22.65;;;;;;;;;;5070620;28;20103;-88
2021/03/03 11:50:18;;;;;;;54.72;22.50;;;;;;;;;;5072433;28;20048;-88
2021/03/03 11:52:55;;;;;;;56.75;24.08;;;;;;;;;;5069466;28;20090;-88
2021/03/03 11:56:02;;;;;;;;;;;;;;;;;;;;;
2021/03/03 11:58:57;;;;;;;48.15;21.77;;;;;;;;;;5060358;28;20050;-88
2021/03/03 12:01:39;;;;;;;51.95;21.45;;;;;;;;;;5052279;28;20025;-88
2021/03/03 12:04:25;;;;;;;54.63;25.35;;;;;;;;;;5063734;28;20040;-87
2021/03/03 12:06:57;;;;;;;57.40;23.90;;;;;;;;;;5070397;28;20039;-87
2021/03/03 12:09:50;;;;;;;50.03;24.30;;;;;;;;;;5069303;28;20540;-88
2021/03/03 12:12:15;;;;;;;50.05;23.17;;;;;;;;;;5074174;28;20016;-88
2021/03/03 12:17:46;;;;;;;58.28;21.42;;;;;;;;;;5032107;28;20086;-86
2021/03/03 12:20:12;;;;;;;56.35;23.80;;;;;;;;;;5069148;28;20105;-85
2021/03/03 12:31:34;;;;;;;56.13;20.35;;;;;;;;;;5069497;28;19912;-87
2021/03/03 12:34:22;;;;;;;44.92;21.83;;;;;;;;;;5082332;28;20028;-86
2021/03/03 12:53:02;;;;;;;59.28;23.58;;;;;;;;;;4991937;22;20659;-86
2021/03/03 12:58:26;;;;;;;54.90;25.08;;;;;;;;;;5124118;23;20041;-86
2021/03/03 13:04:12;;;;;;;57.08;24.77;;;;;;;;;;4985480;28;20078;-86
2021/03/03 13:28:47;;;;;;;;;;;;;;;;;;4911639;29;20536;-86
2021/03/03 13:31:18;;;;;;;59.65;22.02;;;;;;;;;;4915084;29;19915;-86
2021/03/03 13:34:19;;;;;;;;;;;;;;;;;;;;;
2021/03/03 13:39:12;;;;;;;50.83;23.40;;;;;;;;;;5102848;28;20433;-67
2021/03/03 13:41:37;;;;;;;54.50;22.17;;;;;;;;;;5091336;28;20032;-68
2021/03/03 13:44:03;;;;;;;50.75;22.05;;;;;;;;;;5081529;28;20368;-67
2021/03/03 13:46:28;;;;;;;54.35;21.02;;;;;;;;;;5077213;28;20024;-67
2021/03/03 13:48:53;;;;;;;61.47;24.50;;;;;;;;;;5081750;28;20024;-68
2021/03/03 13:51:18;;;;;;;56.47;23.07;;;;;;;;;;5081808;28;20377;-68
2021/03/03 13:53:43;;;;;;;55.83;23.90;;;;;;;;;;5075723;28;20290;-68
2021/03/03 13:56:09;;;;;;;56.77;21.50;;;;;;;;;;5083572;28;20024;-69
2021/03/03 13:58:37;;;;;;;45.67;22.40;;;;;;;;;;5080204;28;20384;-68
2021/03/03 14:01:02;;;;;;;54.58;19.83;;;;;;;;;;5083756;28;20024;-68
2021/03/03 14:03:28;;;;;;;48.83;21.07;;;;;;;;;;5072840;28;20017;-68
2021/03/03 14:05:53;;;;;;;42.30;20.23;;;;;;;;;;5072299;28;20371;-68
2021/03/03 14:08:18;;;;;;;55.93;21.33;;;;;;;;;;5082651;28;20270;-68
2021/03/03 14:10:43;;;;;;;60.42;21.83;;;;;;;;;;5081551;28;20757;-68
2021/03/03 14:13:08;;;;;;;50.53;21.52;;;;;;;;;;5073670;28;20046;-68
2021/03/03 14:15:34;;;;;;;55.47;22.43;;;;;;;;;;5079245;28;20025;-68
2021/03/03 14:17:59;;;;;;;57.03;22.50;;;;;;;;;;5090880;28;20395;-67
2021/03/03 14:20:24;;;;;;;52.42;21.13;;;;;;;;;;5081873;28;20686;-68
2021/03/03 14:22:49;;;;;;;53.80;21.00;;;;;;;;;;5089150;28;20468;-67
2021/03/03 14:25:14;;;;;;;49.83;19.98;;;;;;;;;;5081984;28;20024;-67
2021/03/03 14:27:39;;;;;;;60.90;22.97;;;;;;;;;;5086654;28;20024;-67
2021/03/03 14:30:05;;;;;;;47.92;20.08;;;;;;;;;;5085781;28;20356;-67
2021/03/03 14:32:30;;;;;;;46.75;18.85;;;;;;;;;;5072551;28;20020;-68
2021/03/03 14:34:55;;;;;;;43.60;20.95;;;;;;;;;;5075725;28;20020;-68
2021/03/03 14:37:21;;;;;;;45.30;19.25;;;;;;;;;;5073647;28;20021;-68
2021/03/03 14:39:46;;;;;;;42.42;19.67;;;;;;;;;;5084377;28;20020;-68
2021/03/03 14:42:11;;;;;;;51.63;19.77;;;;;;;;;;5072230;28;20379;-68
2021/03/03 14:44:37;;;;;;;51.58;19.73;;;;;;;;;;5087091;28;20038;-68
2021/03/03 14:47:02;;;;;;;47.23;22.13;;;;;;;;;;5073687;28;20099;-68
2021/03/03 14:49:27;;;;;;;46.50;20.02;;;;;;;;;;5073171;28;20669;-68
2021/03/03 14:51:52;;;;;;;45.15;21.02;;;;;;;;;;5081462;28;20111;-68
2021/03/03 14:54:17;;;;;;;49.40;19.37;;;;;;;;;;5081980;28;20048;-67
2021/03/03 14:56:42;;;;;;;55.43;21.80;;;;;;;;;;5083360;28;20301;-68
2021/03/03 14:59:09;;;;;;;49.47;22.27;;;;;;;;;;5084197;28;20255;-67
2021/03/03 15:01:34;;;;;;;51.55;20.85;;;;;;;;;;5087404;28;20353;-68
2021/03/03 15:04:00;;;;;;;50.27;20.87;;;;;;;;;;5081779;28;20047;-68
2021/03/03 15:06:25;;;;;;;52.87;22.17;;;;;;;;;;5081412;28;20618;-69
2021/03/03 15:08:50;;;;;;;55.85;24.83;;;;;;;;;;5086915;28;20266;-69
2021/03/03 15:11:15;;;;;;;48.20;19.53;;;;;;;;;;5091586;28;20294;-69
2021/03/03 15:13:40;;;;;;;43.67;19.07;;;;;;;;;;5078592;28;20650;-67
2021/03/03 15:16:06;;;;;;;55.50;20.38;;;;;;;;;;5072895;28;20282;-69
2021/03/03 15:18:31;;;;;;;46.00;18.80;;;;;;;;;;5077673;28;20016;-68
2021/03/03 15:20:56;;;;;;;54.40;19.40;;;;;;;;;;5078745;28;20297;-69
2021/03/03 15:23:21;;;;;;;58.53;21.97;;;;;;;;;;5083748;28;20126;-68
2021/03/03 15:25:47;;;;;;;58.60;20.58;;;;;;;;;;5078108;28;20471;-68
2021/03/03 15:28:12;;;;;;;43.05;18.25;;;;;;;;;;5080900;28;20052;-68
2021/03/03 15:30:37;;;;;;;54.47;20.15;;;;;;;;;;5083915;28;20030;-68
2021/03/03 15:33:02;;;;;;;53.47;19.38;;;;;;;;;;5076983;28;20464;-68
2021/03/03 15:35:27;;;;;;;42.50;19.50;;;;;;;;;;5083214;28;20365;-68
2021/03/03 15:37:53;;;;;;;43.08;17.92;;;;;;;;;;5074009;28;20116;-68
2021/03/03 15:40:18;;;;;;;54.65;17.83;;;;;;;;;;5073792;28;20027;-68
2021/03/03 15:42:44;;;;;;;45.75;17.77;;;;;;;;;;5089205;28;20046;-68
2021/03/03 15:45:09;;;;;;;47.72;18.83;;;;;;;;;;5081824;28;20016;-68
2021/03/03 15:47:35;;;;;;;46.78;19.38;;;;;;;;;;5087326;28;20131;-69